Time;durP1;ratioP1;P1;durP2;ratioP2;P2;SDS_P1;SDS_P2;PMS_P1;PMS_P2;Temp;Humidity;BMP_temperature;BMP_pressure;BME280_temperature;BME280_humidity;BME280_pressure;Samples;Min_cycle;Max_cycle;Signal;HPM_P1;HPM_P2
2021/12/28 00:01:11;;;;;;;5.32;1.77;;;;;;;11.45;100.00;98610.75;4979470;28;20038;-68
2021/12/28 00:03:40;;;;;;;7.10;1.63;;;;;;;11.41;100.00;98601.19;4991777;28;20038;-68
2021/12/28 00:06:06;;;;;;;8.20;1.95;;;;;;;11.42;100.00;98594.91;4998792;28;20057;-68
2021/12/28 00:08:31;;;;;;;6.10;1.88;;;;;;;11.40;100.00;98583.53;5010331;28;20409;-68
2021/12/28 00:10:58;;;;;;;8.18;2.20;;;;;;;11.53;100.00;98587.19;5002521;28;20046;-68
2021/12/28 00:13:25;;;;;;;6.93;1.77;;;;;;;11.52;100.00;98580.97;4996674;28;20089;-68
2021/12/28 00:18:24;;;;;;;7.63;2.10;;;;;;;11.60;100.00;98586.72;4993432;28;20495;-68
2021/12/28 00:20:53;;;;;;;12.00;1.98;;;;;;;11.58;100.00;98582.44;4991111;28;20041;-68
2021/12/28 00:23:21;;;;;;;7.20;2.10;;;;;;;11.50;100.00;98577.56;4991691;28;20037;-68
2021/12/28 00:25:48;;;;;;;9.85;2.08;;;;;;;11.56;100.00;98576.34;4998988;28;20029;-68
2021/12/28 00:28:14;;;;;;;9.23;2.15;;;;;;;11.55;100.00;98580.81;4990727;28;20022;-68
2021/12/28 00:30:39;;;;;;;6.97;1.83;;;;;;;11.45;100.00;98565.47;5000783;28;20568;-68
2021/12/28 00:33:06;;;;;;;8.15;2.28;;;;;;;11.46;100.00;98569.84;4993684;28;20042;-68
2021/12/28 00:35:34;;;;;;;9.63;1.92;;;;;;;11.48;99.79;98563.47;5009205;28;20022;-69
2021/12/28 00:38:01;;;;;;;4.03;1.67;;;;;;;11.45;99.11;98562.81;5005957;28;20034;-69
2021/12/28 00:40:27;;;;;;;9.50;1.73;;;;;;;11.48;99.24;98546.66;4991365;28;20141;-69
2021/12/28 00:42:53;;;;;;;8.07;1.88;;;;;;;11.38;98.17;98546.31;4994616;28;20367;-69
2021/12/28 00:45:18;;;;;;;5.85;1.40;;;;;;;11.47;98.91;98566.22;4990818;28;20030;-68
2021/12/28 00:47:44;;;;;;;11.18;2.00;;;;;;;11.44;98.28;98566.41;5007031;28;20022;-68
2021/12/28 00:50:12;;;;;;;6.45;1.50;;;;;;;11.36;98.87;98550.03;4996331;28;20361;-68
2021/12/28 00:52:37;;;;;;;11.57;2.03;;;;;;;11.34;98.22;98558.09;4993283;28;20030;-68
2021/12/28 00:55:05;;;;;;;9.40;1.42;;;;;;;11.34;98.54;98552.78;4990345;28;20034;-68
2021/12/28 00:57:30;;;;;;;5.50;1.52;;;;;;;11.47;96.99;98523.63;4993103;28;20023;-68
2021/12/28 00:59:56;;;;;;;8.25;1.60;;;;;;;11.55;95.32;98529.34;4994265;28;20093;-68
2021/12/28 01:02:21;;;;;;;8.77;1.90;;;;;;;11.57;95.23;98524.78;4990347;28;20500;-68
2021/12/28 01:04:47;;;;;;;9.40;1.70;;;;;;;11.58;95.28;98521.19;4991527;28;20050;-68
2021/12/28 01:07:12;;;;;;;4.15;1.38;;;;;;;11.63;94.32;98519.97;4991964;28;20039;-68
2021/12/28 01:09:40;;;;;;;3.35;1.25;;;;;;;11.69;93.38;98518.75;4991700;28;20080;-68
2021/12/28 01:12:06;;;;;;;6.60;1.65;;;;;;;11.64;93.67;98513.72;4994693;28;20029;-68
2021/12/28 01:14:31;;;;;;;6.20;1.73;;;;;;;11.52;93.89;98497.56;4996156;28;20109;-68
2021/12/28 01:16:59;;;;;;;6.82;1.50;;;;;;;11.64;94.04;98518.19;4989770;28;20117;-68
2021/12/28 01:19:25;;;;;;;8.02;1.65;;;;;;;11.68;93.75;98496.59;4991809;28;20407;-68
2021/12/28 01:21:51;;;;;;;4.95;1.42;;;;;;;11.67;92.92;98496.69;4993372;28;20450;-68
2021/12/28 01:24:18;;;;;;;3.70;1.15;;;;;;;11.71;92.52;98500.88;4990445;28;20084;-68
2021/12/28 01:26:44;;;;;;;5.13;1.13;;;;;;;11.68;93.69;98482.41;4991785;28;20035;-68
2021/12/28 01:29:09;;;;;;;5.38;1.30;;;;;;;11.62;93.06;98474.75;4990918;28;20036;-68
2021/12/28 01:31:37;;;;;;;4.60;0.98;;;;;;;11.54;93.06;98471.72;4990279;28;20386;-68
2021/12/28 01:34:03;;;;;;;7.95;1.10;;;;;;;11.60;94.46;98485.50;4991604;28;20030;-68
2021/12/28 01:36:29;;;;;;;6.03;1.60;;;;;;;11.49;93.72;98474.66;4999482;28;20499;-68
2021/12/28 01:38:54;;;;;;;4.25;1.58;;;;;;;11.55;93.93;98478.75;4971643;28;20331;-68
2021/12/28 01:41:20;;;;;;;4.60;1.13;;;;;;;11.60;93.42;98474.88;4990012;28;20113;-68
2021/12/28 01:43:46;;;;;;;8.70;2.45;;;;;;;11.70;93.43;98478.72;4990872;28;20402;-68
2021/12/28 01:46:12;;;;;;;7.53;1.48;;;;;;;11.68;93.21;98482.41;4978395;28;20030;-68
2021/12/28 01:48:40;;;;;;;3.20;1.13;;;;;;;11.66;94.29;98465.69;5010132;28;20033;-68
2021/12/28 01:51:11;;;;;;;7.63;1.50;;;;;;;11.72;92.73;98476.81;5006772;28;20449;-68
2021/12/28 01:53:38;;;;;;;7.72;1.80;;;;;;;11.78;93.01;98463.09;5009870;28;20033;-68
2021/12/28 01:56:13;;;;;;;6.82;1.42;;;;;;;11.85;91.60;98471.56;4994665;28;20018;-68
2021/12/28 01:58:40;;;;;;;4.68;1.50;;;;;;;11.78;91.90;98464.91;4989365;28;20080;-67
2021/12/28 02:01:07;;;;;;;6.57;1.55;;;;;;;11.63;93.09;98457.84;5003384;28;20030;-67
2021/12/28 02:03:34;;;;;;;5.80;1.60;;;;;;;11.63;93.64;98452.53;5005321;28;20083;-68
2021/12/28 02:06:00;;;;;;;11.15;2.15;;;;;;;11.61;93.94;98457.09;4989102;28;20402;-68
2021/12/28 02:08:26;;;;;;;7.97;1.08;;;;;;;11.66;92.40;98444.38;4988920;28;20092;-68
2021/12/28 02:10:54;;;;;;;3.70;1.63;;;;;;;11.55;92.57;98444.13;4989532;28;20034;-68
2021/12/28 02:13:21;;;;;;;3.75;1.40;;;;;;;11.58;92.63;98447.47;5001146;28;20034;-68
2021/12/28 02:15:46;;;;;;;3.70;1.30;;;;;;;11.54;92.84;98445.97;4990320;28;20494;-68
2021/12/28 02:18:15;;;;;;;7.10;1.60;;;;;;;11.48;92.97;98440.16;4989369;28;20026;-68
2021/12/28 02:20:40;;;;;;;5.45;1.08;;;;;;;11.39;93.35;98430.91;4990482;28;20449;-68
2021/12/28 02:23:06;;;;;;;4.13;1.45;;;;;;;11.43;93.98;98420.94;4991863;28;20054;-68
2021/12/28 02:25:33;;;;;;;5.75;2.65;;;;;;;11.42;93.02;98419.22;4990509;28;20041;-68
2021/12/28 02:27:59;;;;;;;6.70;1.35;;;;;;;11.29;94.08;98408.47;4989409;28;20106;-68
2021/12/28 02:30:25;;;;;;;7.03;1.00;;;;;;;11.28;94.81;98405.91;4992588;28;20029;-68
2021/12/28 02:32:50;;;;;;;5.38;1.27;;;;;;;11.31;94.99;98413.69;4990016;28;20118;-68
2021/12/28 02:35:22;;;;;;;3.53;1.10;;;;;;;11.30;94.69;98414.66;4989344;28;20442;-68
2021/12/28 02:37:48;;;;;;;3.55;1.23;;;;;;;11.32;94.66;98415.38;4989273;28;20462;-68
2021/12/28 02:40:18;;;;;;;3.17;0.98;;;;;;;11.35;95.39;98415.22;4991630;28;20117;-68
2021/12/28 02:42:44;;;;;;;7.85;1.40;;;;;;;11.31;95.25;98400.38;5007135;28;20030;-68
2021/12/28 02:45:14;;;;;;;3.42;1.20;;;;;;;11.23;95.27;98386.69;5004195;28;20049;-68
2021/12/28 02:47:42;;;;;;;3.88;1.13;;;;;;;11.25;96.32;98388.28;5006079;28;20034;-68
2021/12/28 02:50:16;;;;;;;6.93;0.98;;;;;;;11.15;96.58;98370.34;4990533;28;20537;-68
2021/12/28 02:52:41;;;;;;;3.67;1.08;;;;;;;11.11;97.14;98363.47;5009490;28;20521;-68
2021/12/28 02:55:09;;;;;;;3.58;1.10;;;;;;;11.06;98.07;98357.59;4998208;28;20073;-68
2021/12/28 02:57:36;;;;;;;8.82;1.88;;;;;;;11.08;98.92;98361.00;4988816;28;20027;-68
2021/12/28 03:00:03;;;;;;;4.00;0.88;;;;;;;11.04;99.55;98364.78;4994343;28;20042;-68
2021/12/28 03:02:29;;;;;;;2.60;0.85;;;;;;;11.03;99.29;98369.28;4989205;28;20557;-68
2021/12/28 03:04:54;;;;;;;6.00;2.03;;;;;;;11.01;100.00;98359.66;4988726;28;20054;-68
2021/12/28 03:07:20;;;;;;;7.40;2.00;;;;;;;10.78;100.00;98321.16;4989822;28;20030;-68
2021/12/28 03:09:45;;;;;;;6.00;1.80;;;;;;;10.99;100.00;98351.78;4998133;28;20120;-68
2021/12/28 03:12:10;;;;;;;5.10;1.85;;;;;;;10.96;100.00;98348.44;5007298;28;20104;-68
2021/12/28 03:14:36;;;;;;;7.15;2.25;;;;;;;10.94;100.00;98343.22;4988309;28;20030;-68
2021/12/28 03:17:04;;;;;;;4.50;1.67;;;;;;;11.00;100.00;98342.88;4990371;28;20027;-68
2021/12/28 03:19:30;;;;;;;4.05;1.65;;;;;;;10.89;100.00;98317.88;4992649;28;20054;-68
2021/12/28 03:21:58;;;;;;;3.38;1.50;;;;;;;10.95;100.00;98339.63;4993238;28;20057;-67
2021/12/28 03:24:23;;;;;;;6.80;1.25;;;;;;;10.92;100.00;98341.63;4996055;28;20033;-67
2021/12/28 03:26:49;;;;;;;8.20;1.38;;;;;;;10.90;100.00;98335.53;4992893;28;20034;-67
2021/12/28 03:29:14;;;;;;;8.27;1.50;;;;;;;10.86;100.00;98333.97;4992792;28;20386;-67
2021/12/28 03:31:40;;;;;;;7.55;1.65;;;;;;;10.82;100.00;98336.00;5005874;28;20490;-67
2021/12/28 03:34:05;;;;;;;6.97;1.35;;;;;;;10.83;100.00;98323.53;4991602;28;20105;-67
2021/12/28 03:36:31;;;;;;;3.65;1.30;;;;;;;10.81;100.00;98325.47;4990404;28;20034;-67
2021/12/28 03:38:58;;;;;;;7.82;1.50;;;;;;;10.78;100.00;98325.63;4993277;28;20048;-68
2021/12/28 03:41:26;;;;;;;10.27;1.60;;;;;;;10.81;100.00;98328.13;4993278;28;20061;-68
2021/12/28 03:43:54;;;;;;;3.33;0.90;;;;;;;10.73;100.00;98301.09;4994566;28;20076;-68
2021/12/28 03:46:20;;;;;;;2.40;1.02;;;;;;;10.81;100.00;98305.03;4993470;28;20105;-68
2021/12/28 03:48:46;;;;;;;7.78;1.98;;;;;;;10.82;100.00;98308.53;4995462;28;20026;-68
2021/12/28 03:51:12;;;;;;;4.28;1.52;;;;;;;10.84;100.00;98299.50;4992540;28;20053;-68
2021/12/28 03:53:38;;;;;;;2.95;1.00;;;;;;;10.88;100.00;98289.53;4993423;28;20096;-68
2021/12/28 03:56:07;;;;;;;6.03;1.20;;;;;;;10.92;100.00;98267.13;4998414;28;20025;-68
2021/12/28 03:58:33;;;;;;;5.95;1.45;;;;;;;11.06;100.00;98278.63;5009953;28;20026;-67
2021/12/28 04:00:59;;;;;;;5.78;1.08;;;;;;;11.19;100.00;98273.38;5011239;28;20465;-67
2021/12/28 04:03:24;;;;;;;4.22;1.17;;;;;;;11.20;100.00;98283.09;5006026;28;20363;-67
2021/12/28 04:05:51;;;;;;;3.33;1.33;;;;;;;11.15;100.00;98261.25;4992230;28;20073;-67
2021/12/28 04:08:21;;;;;;;3.67;1.15;;;;;;;11.31;100.00;98267.31;4991773;28;20054;-67
2021/12/28 04:11:33;;;;;;;2.90;0.90;;;;;;;11.35;100.00;98268.84;4974799;28;20109;-67
2021/12/28 04:13:34;;;;;;;3.45;0.80;;;;;;;11.39;100.00;98259.69;4983564;28;20409;-67
2021/12/28 04:15:59;;;;;;;3.03;0.80;;;;;;;11.45;99.87;98254.81;4991438;28;20030;-67
2021/12/28 04:18:25;;;;;;;0.60;0.60;;;;;;;11.49;99.61;98263.47;4993922;28;20058;-67
2021/12/28 04:20:50;;;;;;;2.22;1.10;;;;;;;11.55;99.46;98247.09;5003818;28;20022;-67
2021/12/28 04:23:16;;;;;;;1.40;0.70;;;;;;;11.52;98.57;98239.31;5011604;28;20036;-67
2021/12/28 04:25:41;;;;;;;5.72;1.00;;;;;;;11.59;97.64;98240.63;4994009;28;20378;-67
2021/12/28 04:28:07;;;;;;;1.27;0.80;;;;;;;11.69;97.58;98245.28;5004151;28;20034;-69
2021/12/28 04:30:32;;;;;;;6.13;0.65;;;;;;;11.66;96.79;98231.31;4991034;28;20030;-68
2021/12/28 04:32:57;;;;;;;1.00;0.63;;;;;;;11.77;96.14;98235.00;4977092;28;20034;-68
2021/12/28 04:35:23;;;;;;;2.25;0.80;;;;;;;11.84;94.95;98230.94;4997555;28;20030;-68
2021/12/28 04:37:49;;;;;;;2.50;0.90;;;;;;;11.94;93.70;98225.88;4990387;28;20475;-68
2021/12/28 04:40:15;;;;;;;0.65;0.65;;;;;;;11.93;93.62;98234.00;4992462;28;20103;-68
2021/12/28 04:42:41;;;;;;;3.58;0.98;;;;;;;12.02;92.62;98238.69;4994153;28;20454;-67
2021/12/28 04:45:09;;;;;;;3.08;1.10;;;;;;;12.11;91.05;98233.59;4990991;28;20030;-68
2021/12/28 04:47:35;;;;;;;3.35;1.08;;;;;;;12.18;90.43;98216.25;5009173;28;20562;-67
2021/12/28 04:50:00;;;;;;;2.28;0.70;;;;;;;12.16;89.75;98218.16;5010333;28;20049;-68
2021/12/28 04:52:28;;;;;;;1.10;0.60;;;;;;;12.20;89.63;98222.34;4998984;28;20037;-67
2021/12/28 04:54:54;;;;;;;2.10;1.05;;;;;;;12.23;89.37;98216.78;4993465;28;20054;-67
2021/12/28 04:57:20;;;;;;;0.75;0.50;;;;;;;12.31;89.38;98210.91;4995954;28;20398;-67
2021/12/28 04:59:46;;;;;;;3.28;1.00;;;;;;;12.36;89.41;98222.13;4994170;28;20100;-67
2021/12/28 05:02:11;;;;;;;1.10;0.80;;;;;;;12.35;88.75;98220.44;4990130;28;20137;-67
2021/12/28 05:04:36;;;;;;;3.75;0.63;;;;;;;12.33;88.41;98207.22;5000211;28;20026;-67
2021/12/28 05:07:02;;;;;;;2.95;0.60;;;;;;;12.38;88.53;98204.22;4990592;28;20091;-67
2021/12/28 05:09:28;;;;;;;2.05;0.85;;;;;;;12.39;89.21;98211.28;4991335;28;20121;-68
2021/12/28 05:11:53;;;;;;;1.33;0.90;;;;;;;12.23;89.63;98195.47;4991983;28;20100;-68
2021/12/28 05:14:20;;;;;;;3.30;1.10;;;;;;;12.34;90.86;98205.41;4991204;28;20030;-67
2021/12/28 05:16:45;;;;;;;2.08;0.90;;;;;;;12.30;91.37;98199.44;4990354;28;20029;-67
2021/12/28 05:19:11;;;;;;;3.28;0.77;;;;;;;12.28;91.58;98198.66;4992642;28;20453;-67
2021/12/28 05:21:37;;;;;;;1.13;0.60;;;;;;;12.24;91.14;98196.31;4990885;28;20457;-67
2021/12/28 05:24:04;;;;;;;3.25;0.70;;;;;;;12.33;91.35;98195.69;4990284;28;20034;-67
2021/12/28 05:26:29;;;;;;;0.80;0.52;;;;;;;12.24;91.85;98204.31;4990609;28;20034;-67
2021/12/28 05:28:55;;;;;;;0.80;0.57;;;;;;;12.29;91.21;98194.19;4992540;28;20027;-67
2021/12/28 05:31:20;;;;;;;1.52;0.70;;;;;;;12.28;90.41;98188.00;4993125;28;20047;-67
2021/12/28 05:33:46;;;;;;;1.92;0.60;;;;;;;12.31;90.48;98195.78;4990753;28;20101;-67
2021/12/28 05:36:11;;;;;;;2.92;1.13;;;;;;;12.30;90.32;98196.75;4991898;28;20021;-67
2021/12/28 05:38:38;;;;;;;3.17;1.10;;;;;;;12.36;90.43;98196.31;4995081;28;20028;-67
2021/12/28 05:41:05;;;;;;;2.50;0.90;;;;;;;12.33;89.99;98179.69;4985110;28;20037;-67
2021/12/28 05:43:30;;;;;;;3.20;0.82;;;;;;;12.30;90.41;98186.09;4992199;28;20046;-67
2021/12/28 05:45:56;;;;;;;1.67;0.98;;;;;;;12.26;89.88;98178.38;4990032;28;20077;-67
2021/12/28 05:48:21;;;;;;;0.77;0.55;;;;;;;12.37;89.38;98187.34;4973642;28;20030;-67
2021/12/28 05:50:47;;;;;;;1.02;0.57;;;;;;;12.38;89.85;98189.09;4992659;28;20451;-68
2021/12/28 05:53:12;;;;;;;0.82;0.60;;;;;;;12.44;89.36;98183.31;4989640;28;20038;-67
2021/12/28 05:55:37;;;;;;;1.38;0.70;;;;;;;12.37;90.24;98181.19;4990458;28;20026;-67
2021/12/28 05:58:04;;;;;;;0.50;0.50;;;;;;;12.40;88.75;98191.63;4992217;28;20380;-67
2021/12/28 06:00:29;;;;;;;4.05;0.85;;;;;;;12.44;87.56;98193.97;4993079;28;21030;-66
2021/12/28 06:02:56;;;;;;;1.80;0.57;;;;;;;12.51;87.80;98195.28;4997253;28;20088;-66
2021/12/28 06:05:23;;;;;;;0.60;0.60;;;;;;;12.41;88.18;98204.88;4988990;28;20121;-66
2021/12/28 06:07:48;;;;;;;1.60;0.80;;;;;;;12.49;88.03;98212.31;4991755;28;20026;-66
2021/12/28 06:10:14;;;;;;;2.58;0.50;;;;;;;12.49;87.47;98210.53;4989663;28;20026;-66
2021/12/28 06:12:40;;;;;;;1.08;0.50;;;;;;;12.44;88.04;98204.66;4991435;28;20030;-67
2021/12/28 06:15:06;;;;;;;1.20;0.52;;;;;;;12.41;87.73;98207.53;4993986;28;20088;-67
2021/12/28 06:17:31;;;;;;;0.98;0.60;;;;;;;12.46;87.61;98205.41;4988356;28;20665;-67
2021/12/28 06:19:57;;;;;;;1.55;0.80;;;;;;;12.56;86.50;98206.47;4992391;28;20445;-67
2021/12/28 06:22:22;;;;;;;3.00;1.23;;;;;;;12.55;87.01;98193.25;4989991;28;20030;-67
2021/12/28 06:24:49;;;;;;;0.73;0.60;;;;;;;12.46;86.16;98180.53;4989040;28;20101;-67
2021/12/28 06:27:15;;;;;;;6.55;0.80;;;;;;;12.57;85.79;98194.84;4988946;28;20054;-67
2021/12/28 06:29:40;;;;;;;3.20;0.80;;;;;;;12.60;86.00;98217.78;4998196;28;20058;-66
2021/12/28 06:32:06;;;;;;;0.50;0.50;;;;;;;12.63;86.47;98205.09;4989376;28;20026;-66
2021/12/28 06:34:31;;;;;;;1.52;0.52;;;;;;;12.49;87.30;98197.19;4991735;28;20030;-66
2021/12/28 06:36:57;;;;;;;1.20;0.70;;;;;;;12.48;88.77;98211.50;4987563;28;20465;-66
2021/12/28 06:39:22;;;;;;;0.55;0.50;;;;;;;12.46;90.47;98212.53;4989527;28;20029;-66
2021/12/28 06:41:48;;;;;;;0.77;0.60;;;;;;;12.46;90.49;98216.06;4992086;28;20034;-66
2021/12/28 06:44:13;;;;;;;2.72;0.68;;;;;;;12.43;90.79;98210.09;4989582;28;20367;-66
2021/12/28 06:46:39;;;;;;;2.08;0.93;;;;;;;12.28;91.31;98198.66;5003338;28;20057;-66
2021/12/28 06:49:05;;;;;;;1.85;0.68;;;;;;;12.32;92.00;98209.97;5006125;28;20034;-66
2021/12/28 06:51:31;;;;;;;0.88;0.77;;;;;;;12.27;92.02;98191.63;5003811;28;20033;-66
2021/12/28 06:53:57;;;;;;;2.33;0.70;;;;;;;12.32;92.13;98205.47;5012213;28;20808;-67
2021/12/28 06:56:23;;;;;;;1.75;0.75;;;;;;;12.27;92.11;98204.09;4988281;28;20105;-67
2021/12/28 06:58:49;;;;;;;1.13;0.80;;;;;;;12.10;92.00;98173.28;4994760;28;20423;-67
2021/12/28 07:01:14;;;;;;;0.60;0.60;;;;;;;12.34;91.28;98200.06;4995810;28;20041;-67
2021/12/28 07:03:40;;;;;;;1.23;0.80;;;;;;;12.37;90.37;98200.69;4990931;28;20030;-67
2021/12/28 07:06:07;;;;;;;1.33;0.52;;;;;;;12.41;89.77;98194.19;4992461;28;20047;-66
2021/12/28 07:08:33;;;;;;;0.95;0.70;;;;;;;12.45;89.97;98195.72;5002590;28;20034;-66
2021/12/28 07:10:59;;;;;;;1.98;0.57;;;;;;;12.45;89.74;98197.50;4993375;28;20086;-66
2021/12/28 07:13:24;;;;;;;0.77;0.70;;;;;;;12.47;90.95;98193.75;4992991;28;20038;-66
2021/12/28 07:15:51;;;;;;;1.83;0.90;;;;;;;12.46;91.60;98202.75;4995164;28;20030;-66
2021/12/28 07:18:16;;;;;;;5.32;1.05;;;;;;;12.42;92.86;98197.72;4993832;28;20019;-66
2021/12/28 07:20:42;;;;;;;0.90;0.70;;;;;;;12.40;92.86;98205.84;4992402;28;20497;-66
2021/12/28 07:23:07;;;;;;;1.75;1.00;;;;;;;12.36;94.48;98201.66;5004439;28;20025;-67
2021/12/28 07:25:33;;;;;;;0.63;0.63;;;;;;;12.31;94.91;98224.25;4993212;28;20434;-66
2021/12/28 07:27:58;;;;;;;0.75;0.60;;;;;;;12.34;95.26;98208.91;4994316;28;20026;-66
2021/12/28 07:30:24;;;;;;;0.60;0.60;;;;;;;12.38;94.45;98218.41;5001948;28;20022;-66
2021/12/28 07:32:49;;;;;;;0.95;0.70;;;;;;;12.38;94.83;98218.41;4998147;28;20056;-66
2021/12/28 07:35:15;;;;;;;1.48;0.90;;;;;;;12.35;95.88;98229.28;5012138;28;20030;-66
2021/12/28 07:37:41;;;;;;;1.48;0.95;;;;;;;12.33;95.03;98217.88;4986165;28;20057;-66
2021/12/28 07:40:10;;;;;;;1.55;0.80;;;;;;;12.38;94.50;98226.41;4995342;28;20062;-66
2021/12/28 07:42:36;;;;;;;0.93;0.80;;;;;;;12.48;93.67;98222.16;5000563;28;20493;-66
2021/12/28 07:45:07;;;;;;;1.08;0.60;;;;;;;12.51;94.08;98232.59;4992330;28;20030;-66
2021/12/28 07:47:32;;;;;;;5.85;2.40;;;;;;;12.52;94.71;98241.47;4992297;28;20058;-66
2021/12/28 07:49:58;;;;;;;1.02;0.70;;;;;;;12.48;95.28;98238.16;4995301;28;20057;-66
2021/12/28 07:52:23;;;;;;;0.95;0.63;;;;;;;12.45;95.53;98259.72;4992790;28;20509;-66
2021/12/28 07:54:49;;;;;;;1.48;0.73;;;;;;;12.50;95.45;98241.59;4992470;28;20052;-66
2021/12/28 07:57:14;;;;;;;0.50;0.50;;;;;;;12.48;95.66;98254.16;4992503;28;20023;-66
2021/12/28 07:59:39;;;;;;;0.60;0.60;;;;;;;12.49;96.22;98252.31;4999750;28;20547;-66
2021/12/28 08:02:05;;;;;;;0.50;0.50;;;;;;;12.54;96.11;98253.72;4994244;28;20097;-66
2021/12/28 08:04:30;;;;;;;1.17;0.60;;;;;;;12.57;97.03;98263.34;4991880;28;20215;-66
2021/12/28 08:06:57;;;;;;;0.93;0.60;;;;;;;12.55;97.77;98281.25;4991815;28;20450;-66
2021/12/28 08:09:22;;;;;;;0.90;0.60;;;;;;;12.41;100.00;98268.00;4994517;28;20497;-66
2021/12/28 08:11:48;;;;;;;0.75;0.50;;;;;;;12.30;100.00;98265.22;4992459;28;20058;-66
2021/12/28 08:14:13;;;;;;;1.00;0.60;;;;;;;12.35;100.00;98274.63;4992106;28;20061;-66
2021/12/28 08:16:39;;;;;;;0.60;0.60;;;;;;;12.32;100.00;98280.13;4991517;28;20026;-66
2021/12/28 08:19:06;;;;;;;1.08;0.80;;;;;;;12.24;100.00;98269.13;4994255;28;20049;-66
2021/12/28 08:21:32;;;;;;;1.55;0.75;;;;;;;12.36;100.00;98278.97;4973091;28;20037;-66
2021/12/28 08:23:57;;;;;;;1.65;0.70;;;;;;;12.40;100.00;98291.16;5002106;28;20038;-66
2021/12/28 08:26:23;;;;;;;4.20;1.60;;;;;;;12.41;100.00;98284.84;4993157;28;20026;-66
2021/12/28 08:28:48;;;;;;;2.97;0.93;;;;;;;12.44;100.00;98287.31;4989698;28;20498;-66
2021/12/28 08:31:14;;;;;;;2.53;1.45;;;;;;;12.45;99.93;98291.72;4993497;28;20065;-66
2021/12/28 08:33:39;;;;;;;1.38;0.80;;;;;;;12.50;100.00;98286.91;5001894;28;20032;-66
2021/12/28 08:36:05;;;;;;;0.47;0.47;;;;;;;12.50;99.48;98292.25;5011407;28;20390;-66
2021/12/28 08:38:31;;;;;;;2.60;1.00;;;;;;;12.54;99.89;98291.06;4994641;28;20065;-66
2021/12/28 08:40:57;;;;;;;3.40;1.40;;;;;;;12.59;99.48;98294.28;4992555;28;20149;-66
2021/12/28 08:43:23;;;;;;;2.45;1.20;;;;;;;12.60;99.41;98295.97;4999506;28;20026;-66
2021/12/28 08:45:49;;;;;;;2.70;1.05;;;;;;;12.63;99.27;98306.47;4991424;28;20022;-66
2021/12/28 08:48:14;;;;;;;3.13;1.23;;;;;;;12.64;99.42;98308.16;4993079;28;20037;-66
2021/12/28 08:50:41;;;;;;;1.13;0.70;;;;;;;12.73;99.35;98323.56;4994456;28;20487;-66
2021/12/28 08:53:07;;;;;;;1.30;0.93;;;;;;;12.73;99.04;98326.22;4993051;28;20031;-66
2021/12/28 08:55:33;;;;;;;1.30;0.90;;;;;;;12.78;98.61;98340.06;4991120;28;20030;-66
2021/12/28 08:57:58;;;;;;;0.68;0.57;;;;;;;12.84;99.04;98334.34;4990868;28;20026;-66
2021/12/28 09:00:27;;;;;;;0.60;0.60;;;;;;;12.83;98.67;98340.63;5003032;28;20022;-66
2021/12/28 09:02:55;;;;;;;2.33;1.05;;;;;;;12.86;98.92;98351.09;4998686;28;20026;-66
2021/12/28 09:05:23;;;;;;;0.93;0.77;;;;;;;12.91;98.29;98348.97;4991174;28;20045;-66
2021/12/28 09:07:48;;;;;;;3.40;1.30;;;;;;;12.92;98.42;98352.47;4993072;28;20479;-66
2021/12/28 09:10:14;;;;;;;2.97;1.45;;;;;;;12.95;98.71;98354.94;4972354;28;20083;-66
2021/12/28 09:12:40;;;;;;;3.30;1.30;;;;;;;12.94;98.60;98353.25;4991581;28;20057;-66
2021/12/28 09:15:08;;;;;;;1.20;0.70;;;;;;;12.94;99.02;98354.09;4997929;28;20041;-66
2021/12/28 09:17:34;;;;;;;1.30;0.80;;;;;;;12.96;98.50;98357.50;4972929;28;20027;-66
2021/12/28 09:20:02;;;;;;;2.70;1.20;;;;;;;13.04;98.41;98371.22;4993598;28;20435;-66
2021/12/28 09:22:28;;;;;;;0.60;0.60;;;;;;;13.07;98.55;98375.50;5010234;28;20034;-66
2021/12/28 09:24:53;;;;;;;0.47;0.47;;;;;;;13.08;98.40;98372.72;5006184;28;20022;-66
2021/12/28 09:27:19;;;;;;;1.50;0.60;;;;;;;13.07;98.57;98376.34;4989164;28;20026;-66
2021/12/28 09:29:44;;;;;;;1.92;0.68;;;;;;;13.08;99.15;98383.38;4989194;28;20034;-66
2021/12/28 09:32:10;;;;;;;1.15;0.63;;;;;;;13.10;98.87;98380.59;4992322;28;20026;-66
2021/12/28 09:34:36;;;;;;;0.98;0.52;;;;;;;13.11;99.03;98385.84;5010481;28;20474;-66
2021/12/28 09:37:02;;;;;;;8.32;3.60;;;;;;;13.12;99.49;98384.91;5006795;28;20291;-66
2021/12/28 09:39:29;;;;;;;38.22;20.65;;;;;;;13.18;99.71;98384.47;4990667;28;20035;-67
2021/12/28 09:42:00;;;;;;;28.17;14.25;;;;;;;13.23;99.71;98385.97;5000656;28;20026;-66
2021/12/28 09:44:28;;;;;;;11.48;7.18;;;;;;;13.24;99.77;98389.38;4990492;28;20026;-66
2021/12/28 09:46:54;;;;;;;9.60;6.53;;;;;;;13.27;99.82;98388.31;4989657;28;20022;-66
2021/12/28 09:49:20;;;;;;;12.13;6.80;;;;;;;13.32;99.98;98396.00;4976643;28;20017;-66
2021/12/28 09:51:45;;;;;;;6.57;3.38;;;;;;;13.31;99.76;98402.31;4989979;28;20030;-66
2021/12/28 09:54:11;;;;;;;7.88;4.80;;;;;;;13.28;99.31;98381.19;4996316;28;20018;-66
2021/12/28 09:56:37;;;;;;;2.10;1.40;;;;;;;13.32;99.61;98379.97;5008869;28;20030;-66
2021/12/28 09:59:04;;;;;;;3.72;1.73;;;;;;;13.42;98.89;98387.25;4998780;28;20025;-66
2021/12/28 10:01:30;;;;;;;12.38;7.40;;;;;;;13.45;99.33;98384.38;5005328;28;20026;-66
2021/12/28 10:03:57;;;;;;;14.38;6.07;;;;;;;13.46;98.69;98393.25;4996002;28;20025;-66
2021/12/28 10:06:25;;;;;;;4.63;2.63;;;;;;;13.47;98.89;98378.91;4999612;28;20046;-66
2021/12/28 10:09:21;;;;;;;2.45;1.50;;;;;;;13.56;98.59;98383.63;4986025;28;20474;-64
2021/12/28 10:11:56;;;;;;;1.55;1.08;;;;;;;13.74;98.27;98393.00;5003359;28;20080;-64
2021/12/28 10:14:27;;;;;;;1.40;0.70;;;;;;;13.79;98.43;98385.53;4998607;28;20026;-65
2021/12/28 10:17:01;;;;;;;0.82;0.60;;;;;;;13.87;98.05;98393.84;4994421;28;20026;-65
2021/12/28 10:19:42;;;;;;;1.35;0.70;;;;;;;13.85;97.04;98377.06;5009294;28;20108;-66
2021/12/28 10:22:20;;;;;;;0.95;0.45;;;;;;;13.97;97.23;98379.69;4996746;28;20104;-65
2021/12/28 10:24:48;;;;;;;4.18;1.45;;;;;;;13.99;96.48;98387.59;4989358;28;20117;-66
2021/12/28 10:27:20;;;;;;;4.55;2.75;;;;;;;14.03;96.29;98378.41;4993530;28;20076;-66
2021/12/28 10:29:46;;;;;;;4.38;2.33;;;;;;;13.98;96.21;98369.88;5006428;28;20021;-66
2021/12/28 10:32:25;;;;;;;4.10;2.58;;;;;;;14.02;96.64;98392.75;5007642;28;20045;-66
2021/12/28 10:34:59;;;;;;;4.47;3.50;;;;;;;14.00;96.44;98373.28;5007001;28;20112;-66
2021/12/28 10:37:31;;;;;;;1.80;1.00;;;;;;;13.98;96.97;98381.41;5000490;28;20037;-65
2021/12/28 10:39:59;;;;;;;1.33;0.80;;;;;;;14.02;97.24;98374.03;4987464;28;20037;-66
2021/12/28 10:42:53;;;;;;;0.73;0.70;;;;;;;14.07;97.44;98377.19;4998121;28;20029;-66
2021/12/28 10:45:41;;;;;;;0.57;0.55;;;;;;;14.03;97.82;98378.41;4985516;28;20505;-66
2021/12/28 10:48:11;;;;;;;0.85;0.65;;;;;;;14.05;97.78;98376.47;4993753;28;20026;-66
2021/12/28 10:50:55;;;;;;;0.77;0.60;;;;;;;14.09;98.34;98378.81;4988109;28;20442;-66
2021/12/28 10:53:34;;;;;;;1.95;1.13;;;;;;;14.13;97.92;98380.31;4994903;28;20113;-66
2021/12/28 10:56:01;;;;;;;4.05;1.90;;;;;;;14.17;98.25;98380.91;5004655;28;20049;-66
2021/12/28 10:58:39;;;;;;;4.18;2.30;;;;;;;14.21;98.26;98388.63;5004600;28;20441;-66
2021/12/28 11:01:19;;;;;;;2.22;1.40;;;;;;;14.20;97.68;98384.22;4999787;28;20034;-66
2021/12/28 11:03:52;;;;;;;1.15;0.85;;;;;;;14.26;96.64;98380.28;5006489;28;20083;-65
2021/12/28 11:06:25;;;;;;;3.78;2.13;;;;;;;14.27;96.64;98377.50;5006126;28;20034;-65
2021/12/28 11:08:54;;;;;;;1.60;0.98;;;;;;;14.26;97.05;98391.00;5004608;28;20052;-65
2021/12/28 11:11:22;;;;;;;1.33;1.00;;;;;;;14.17;96.89;98392.47;5007460;28;20108;-65
2021/12/28 11:13:51;;;;;;;1.33;0.90;;;;;;;14.22;96.62;98394.81;5002860;28;20623;-65
2021/12/28 11:16:19;;;;;;;1.05;0.70;;;;;;;14.18;97.35;98382.66;4988851;28;20033;-65
2021/12/28 11:18:47;;;;;;;1.33;0.90;;;;;;;14.23;97.06;98385.84;5005867;28;20500;-65
2021/12/28 11:21:24;;;;;;;4.38;2.60;;;;;;;14.35;97.54;98390.31;5008013;28;20486;-66
2021/12/28 11:23:53;;;;;;;1.63;1.25;;;;;;;14.35;97.07;98384.94;5000613;28;20034;-66
2021/12/28 11:26:25;;;;;;;2.55;1.30;;;;;;;14.33;97.23;98385.06;4986493;28;20129;-66
2021/12/28 11:29:04;;;;;;;3.10;1.38;;;;;;;14.26;99.18;98381.16;5001546;28;20036;-66
2021/12/28 11:31:41;;;;;;;1.42;0.70;;;;;;;14.25;100.00;98383.91;5004017;28;20022;-66
2021/12/28 11:34:14;;;;;;;2.85;0.88;;;;;;;14.18;100.00;98377.28;5004670;28;20061;-66